Time;durP1;ratioP1;P1;durP2;ratioP2;P2;SDS_P1;SDS_P2;PMS_P1;PMS_P2;Temp;Humidity;BMP_temperature;BMP_pressure;BME280_temperature;BME280_humidity;BME280_pressure;Samples;Min_cycle;Max_cycle;Signal;HPM_P1;HPM_P2
2023/08/08 00:02:06;;;;;;;3.40;2.90;;;13.90;99.90;;;;;;5071653;28;20048;-73
2023/08/08 00:04:32;;;;;;;9.70;3.63;;;14.00;99.90;;;;;;5071763;28;20094;-73
2023/08/08 00:06:57;;;;;;;8.45;3.25;;;13.70;99.90;;;;;;5071690;28;20169;-72
2023/08/08 00:09:23;;;;;;;5.38;3.47;;;13.90;99.90;;;;;;5071463;28;20124;-73
2023/08/08 00:11:48;;;;;;;9.10;3.28;;;14.00;99.90;;;;;;5072013;28;20106;-73
2023/08/08 00:14:14;;;;;;;7.25;3.25;;;13.80;99.90;;;;;;5071650;28;20039;-73
2023/08/08 00:16:40;;;;;;;6.38;3.60;;;13.70;99.90;;;;;;5072772;28;20048;-73
2023/08/08 00:19:05;;;;;;;8.73;3.80;;;13.90;99.90;;;;;;5071574;28;20044;-73
2023/08/08 00:21:31;;;;;;;6.40;3.33;;;13.90;99.90;;;;;;5055273;28;20037;-73
2023/08/08 00:23:57;;;;;;;4.93;3.30;;;13.90;99.90;;;;;;5055187;28;20037;-73
2023/08/08 00:26:22;;;;;;;7.50;3.17;;;13.70;99.90;;;;;;5072701;28;20518;-73
2023/08/08 00:28:48;;;;;;;6.20;3.45;;;13.60;99.90;;;;;;5071220;28;20055;-73
2023/08/08 00:31:16;;;;;;;6.80;3.80;;;13.80;99.90;;;;;;5071183;28;20123;-73
2023/08/08 00:33:42;;;;;;;5.35;3.50;;;13.80;99.90;;;;;;5070736;28;20404;-73
2023/08/08 00:36:07;;;;;;;6.95;3.17;;;13.70;99.90;;;;;;5071228;28;20086;-73
2023/08/08 00:38:33;;;;;;;8.35;3.60;;;13.60;99.90;;;;;;5071000;28;20174;-72
2023/08/08 00:40:59;;;;;;;4.93;3.40;;;13.60;99.90;;;;;;5071013;28;20408;-73
2023/08/08 00:43:24;;;;;;;6.50;3.83;;;13.60;99.90;;;;;;5071346;28;20582;-74
2023/08/08 00:45:50;;;;;;;4.88;3.78;;;13.80;99.90;;;;;;5071019;28;20079;-74
2023/08/08 00:48:17;;;;;;;5.78;3.28;;;13.50;99.90;;;;;;5070770;28;20047;-74
2023/08/08 00:50:44;;;;;;;6.47;3.58;;;13.50;99.90;;;;;;5071039;28;20052;-74
2023/08/08 00:53:10;;;;;;;4.85;3.65;;;13.50;99.90;;;;;;5072392;28;20105;-74
2023/08/08 00:55:36;;;;;;;7.57;3.50;;;13.70;99.90;;;;;;5070923;28;20048;-73
2023/08/08 00:58:01;;;;;;;7.22;3.60;;;13.50;99.90;;;;;;5071826;28;20050;-74
2023/08/08 01:00:27;;;;;;;5.47;3.50;;;13.50;99.90;;;;;;5072013;28;20039;-74
2023/08/08 01:02:52;;;;;;;5.28;3.13;;;13.60;99.90;;;;;;5070811;28;20033;-74
2023/08/08 01:05:18;;;;;;;6.38;2.85;;;13.50;99.90;;;;;;5070781;28;20102;-74
2023/08/08 01:07:52;;;;;;;8.13;3.45;;;13.50;99.90;;;;;;5070435;28;20051;-74
2023/08/08 01:10:24;;;;;;;5.93;3.20;;;13.50;99.90;;;;;;5070824;28;20119;-74
2023/08/08 01:12:54;;;;;;;7.68;3.50;;;13.70;99.90;;;;;;5070934;28;20098;-74
2023/08/08 01:15:20;;;;;;;7.25;3.70;;;13.50;99.90;;;;;;5070645;28;20068;-74
2023/08/08 01:17:47;;;;;;;4.82;3.25;;;13.50;99.90;;;;;;5070348;28;20041;-74
2023/08/08 01:20:16;;;;;;;10.00;3.70;;;13.50;99.90;;;;;;5053824;28;20068;-74
2023/08/08 01:23:11;;;;;;;7.88;3.47;;;13.60;99.90;;;;;;5071745;28;20385;-74
2023/08/08 01:25:37;;;;;;;6.70;3.38;;;13.60;99.90;;;;;;5070766;28;20178;-74
2023/08/08 01:28:03;;;;;;;5.65;3.60;;;13.40;99.90;;;;;;5070162;28;20036;-74
2023/08/08 01:30:29;;;;;;;11.05;3.60;;;13.40;99.90;;;;;;5053710;28;20032;-74
2023/08/08 01:32:54;;;;;;;6.07;3.17;;;13.50;99.90;;;;;;5070391;28;20037;-74
2023/08/08 01:35:21;;;;;;;7.20;3.67;;;13.60;99.90;;;;;;5070389;28;20087;-74
2023/08/08 01:37:53;;;;;;;5.70;3.47;;;13.60;99.90;;;;;;5070171;28;20074;-74
2023/08/08 01:40:19;;;;;;;7.93;4.53;;;13.50;99.90;;;;;;5071674;28;20115;-74
2023/08/08 01:42:47;;;;;;;6.57;4.22;;;13.40;99.90;;;;;;5053690;28;20036;-74
2023/08/08 01:45:13;;;;;;;6.93;4.10;;;13.60;99.90;;;;;;5070370;28;20093;-74
2023/08/08 01:47:39;;;;;;;9.63;4.05;;;13.50;99.90;;;;;;5069987;28;20041;-74
2023/08/08 01:50:05;;;;;;;9.00;4.20;;;13.60;99.90;;;;;;5071190;28;20660;-74
2023/08/08 01:52:31;;;;;;;6.82;3.60;;;13.50;99.90;;;;;;5076903;28;20045;-74
2023/08/08 01:54:56;;;;;;;6.55;3.78;;;13.40;99.90;;;;;;5076806;28;20210;-74
2023/08/08 01:57:22;;;;;;;8.68;3.90;;;13.60;99.90;;;;;;5076595;28;20044;-74
2023/08/08 01:59:48;;;;;;;6.05;3.78;;;13.60;99.90;;;;;;5078113;28;20115;-74
2023/08/08 02:02:14;;;;;;;11.45;4.07;;;13.60;99.90;;;;;;5077037;28;20028;-74
2023/08/08 02:04:40;;;;;;;8.45;3.50;;;13.50;99.90;;;;;;5076893;28;20048;-74
2023/08/08 02:07:06;;;;;;;6.35;3.97;;;13.60;99.90;;;;;;5076428;28;20045;-74
2023/08/08 02:09:31;;;;;;;6.43;3.78;;;13.70;99.90;;;;;;5076828;28;20052;-74
2023/08/08 02:11:57;;;;;;;8.50;4.30;;;13.50;99.90;;;;;;5076763;28;20128;-74
2023/08/08 02:14:22;;;;;;;5.78;4.00;;;13.50;99.90;;;;;;5076905;28;20036;-74
2023/08/08 02:16:48;;;;;;;6.90;3.90;;;13.60;99.90;;;;;;5077898;28;20487;-74
2023/08/08 02:19:15;;;;;;;7.03;3.90;;;13.50;99.90;;;;;;5059741;28;20147;-74
2023/08/08 02:21:40;;;;;;;6.10;3.58;;;13.70;99.90;;;;;;5076546;28;20076;-74
2023/08/08 02:24:06;;;;;;;6.05;4.22;;;13.50;99.90;;;;;;5076941;28;20079;-74
2023/08/08 02:26:31;;;;;;;5.60;3.40;;;13.60;99.90;;;;;;5059875;28;20045;-74
2023/08/08 02:28:57;;;;;;;5.63;3.92;;;13.70;99.90;;;;;;5076359;28;20037;-74
2023/08/08 02:31:22;;;;;;;7.60;3.92;;;13.60;99.90;;;;;;5076522;28;20415;-74
2023/08/08 02:33:52;;;;;;;7.47;4.40;;;13.70;99.90;;;;;;5076451;28;20411;-74
2023/08/08 02:36:18;;;;;;;6.38;3.67;;;13.50;99.90;;;;;;5059638;28;20029;-74
2023/08/08 02:38:45;;;;;;;9.65;4.40;;;13.70;99.90;;;;;;5076612;28;20543;-74
2023/08/08 02:41:10;;;;;;;8.90;4.68;;;13.70;99.90;;;;;;5076338;28;20075;-74
2023/08/08 02:43:36;;;;;;;7.05;3.45;;;13.60;99.90;;;;;;5075551;28;20075;-73
2023/08/08 02:46:02;;;;;;;8.65;3.58;;;13.70;99.90;;;;;;5075386;28;20044;-74
2023/08/08 02:48:29;;;;;;;8.38;4.20;;;13.60;99.90;;;;;;5076277;28;20685;-73
2023/08/08 02:50:55;;;;;;;9.50;4.00;;;13.60;99.90;;;;;;5058582;28;20044;-73
2023/08/08 02:53:20;;;;;;;7.18;4.18;;;13.70;99.90;;;;;;5076108;28;20047;-74
2023/08/08 02:55:47;;;;;;;6.35;4.03;;;13.70;99.90;;;;;;5076863;28;20521;-74
2023/08/08 02:58:12;;;;;;;8.70;4.13;;;13.50;99.90;;;;;;5077260;28;20033;-74
2023/08/08 03:00:38;;;;;;;10.45;3.85;;;13.70;99.90;;;;;;5077144;28;20033;-73
2023/08/08 03:03:04;;;;;;;9.77;4.20;;;13.50;99.90;;;;;;5072381;28;20047;-73
2023/08/08 03:05:29;;;;;;;6.93;4.07;;;13.50;99.90;;;;;;5074103;28;20056;-73
2023/08/08 03:07:55;;;;;;;5.28;3.35;;;13.50;99.90;;;;;;5055898;28;20041;-73
2023/08/08 03:10:20;;;;;;;10.75;4.88;;;13.70;99.90;;;;;;5072822;28;20051;-74
2023/08/08 03:12:46;;;;;;;8.02;4.25;;;13.60;99.90;;;;;;5074100;28;20170;-74
2023/08/08 03:15:12;;;;;;;7.05;3.67;;;13.50;99.90;;;;;;5072925;28;20044;-74
2023/08/08 03:17:37;;;;;;;8.88;3.75;;;13.60;99.90;;;;;;5073909;28;20111;-74
2023/08/08 03:20:05;;;;;;;6.88;4.13;;;13.50;99.90;;;;;;5072566;28;20037;-74
2023/08/08 03:22:31;;;;;;;6.82;3.53;;;13.60;99.90;;;;;;5072795;28;20495;-74
2023/08/08 03:24:57;;;;;;;6.53;3.38;;;13.50;99.90;;;;;;5072789;28;20048;-74
2023/08/08 03:27:22;;;;;;;6.78;3.03;;;13.50;99.90;;;;;;5072344;28;20040;-74
2023/08/08 03:29:48;;;;;;;8.43;3.13;;;13.50;99.90;;;;;;5072354;28;20037;-74
2023/08/08 03:32:14;;;;;;;9.00;3.38;;;13.60;99.90;;;;;;5072598;28;20043;-74
2023/08/08 03:34:39;;;;;;;5.30;3.03;;;13.70;99.90;;;;;;5055786;28;20045;-74
2023/08/08 03:37:05;;;;;;;6.70;3.47;;;13.60;99.90;;;;;;5072022;28;20037;-73
2023/08/08 03:39:31;;;;;;;6.32;3.03;;;13.60;99.90;;;;;;5072283;28;20040;-74
2023/08/08 03:41:56;;;;;;;5.93;3.35;;;13.60;99.90;;;;;;5073648;28;20407;-74
2023/08/08 03:44:22;;;;;;;6.68;2.80;;;13.60;99.90;;;;;;5073535;28;20040;-74
2023/08/08 03:46:47;;;;;;;5.15;3.03;;;13.60;99.90;;;;;;5072095;28;20083;-74
2023/08/08 03:49:13;;;;;;;8.52;3.42;;;13.40;99.90;;;;;;5072918;28;20047;-74
2023/08/08 03:51:38;;;;;;;7.55;2.83;;;13.50;99.90;;;;;;5072348;28;20068;-74
2023/08/08 03:54:04;;;;;;;9.32;3.88;;;13.50;99.90;;;;;;5072076;28;20036;-74
2023/08/08 03:56:29;;;;;;;7.28;3.50;;;13.50;99.90;;;;;;5072133;28;20183;-74
2023/08/08 03:58:56;;;;;;;9.15;3.20;;;13.50;99.90;;;;;;5055301;28;20036;-74
2023/08/08 04:01:22;;;;;;;8.63;3.30;;;13.30;99.90;;;;;;5054531;28;20050;-74
2023/08/08 04:03:48;;;;;;;6.30;2.47;;;13.40;99.90;;;;;;5071547;28;20450;-74
2023/08/08 04:06:13;;;;;;;5.18;2.75;;;13.50;99.90;;;;;;5073233;28;20036;-74
2023/08/08 04:08:39;;;;;;;5.95;2.35;;;13.40;99.90;;;;;;5072498;28;20036;-74
2023/08/08 04:11:04;;;;;;;3.10;2.38;;;13.30;99.90;;;;;;5071152;28;20028;-74
2023/08/08 04:13:30;;;;;;;7.65;2.60;;;13.30;99.90;;;;;;5071624;28;20048;-74
2023/08/08 04:15:56;;;;;;;5.40;2.00;;;13.30;99.90;;;;;;5071747;28;20570;-74
2023/08/08 04:18:21;;;;;;;7.75;2.55;;;13.50;99.90;;;;;;5071365;28;20036;-74
2023/08/08 04:20:47;;;;;;;6.75;1.90;;;13.30;99.90;;;;;;5071371;28;20036;-74
2023/08/08 04:23:13;;;;;;;6.70;2.30;;;13.30;99.90;;;;;;5071570;28;20064;-74
2023/08/08 04:25:38;;;;;;;4.30;1.92;;;13.50;99.90;;;;;;5071526;28;20068;-74
2023/08/08 04:28:04;;;;;;;7.03;2.40;;;13.30;99.90;;;;;;5071221;28;20101;-74
2023/08/08 04:30:30;;;;;;;4.65;2.17;;;13.50;99.90;;;;;;5054717;28;20049;-74
2023/08/08 04:32:55;;;;;;;6.40;2.22;;;13.50;99.90;;;;;;5071314;28;20055;-74
2023/08/08 04:35:21;;;;;;;8.52;2.47;;;13.50;99.90;;;;;;5054790;28;20206;-75
2023/08/08 04:37:47;;;;;;;4.72;2.20;;;13.50;99.90;;;;;;5071049;28;20032;-75
2023/08/08 04:40:12;;;;;;;6.13;2.92;;;13.50;99.90;;;;;;5070847;28;20034;-75
2023/08/08 04:42:38;;;;;;;5.13;2.67;;;13.60;99.90;;;;;;5071151;28;20075;-73
2023/08/08 04:45:04;;;;;;;6.53;2.60;;;13.70;99.90;;;;;;5071116;28;20072;-73
2023/08/08 04:47:30;;;;;;;5.57;3.03;;;13.50;99.90;;;;;;5070987;28;20492;-73
2023/08/08 04:49:55;;;;;;;8.05;2.58;;;13.80;99.90;;;;;;5070804;28;20123;-73
2023/08/08 04:52:21;;;;;;;11.07;2.60;;;13.80;99.90;;;;;;5054454;28;20601;-73
2023/08/08 04:54:47;;;;;;;6.97;2.45;;;13.70;99.90;;;;;;5070918;28;20041;-73
2023/08/08 04:57:12;;;;;;;6.75;2.15;;;13.90;99.90;;;;;;5070346;28;20035;-72
2023/08/08 04:59:38;;;;;;;7.28;2.22;;;13.80;99.90;;;;;;5070516;28;20121;-73
2023/08/08 05:02:03;;;;;;;5.35;1.98;;;14.00;99.90;;;;;;5070080;28;20165;-72
2023/08/08 05:04:30;;;;;;;8.52;2.63;;;13.90;99.90;;;;;;5054161;28;20043;-73
2023/08/08 05:06:57;;;;;;;8.85;2.88;;;14.20;99.90;;;;;;5070614;28;20036;-73
2023/08/08 05:09:26;;;;;;;7.97;2.90;;;14.20;99.90;;;;;;5070274;28;20048;-73
2023/08/08 05:11:52;;;;;;;5.47;2.35;;;14.20;99.90;;;;;;5070727;28;20098;-73
2023/08/08 05:14:18;;;;;;;6.78;2.75;;;14.50;99.90;;;;;;5070545;28;20083;-73
2023/08/08 05:16:43;;;;;;;13.60;3.53;;;14.50;99.90;;;;;;5070516;28;20072;-73
2023/08/08 05:19:09;;;;;;;6.82;2.38;;;14.60;99.90;;;;;;5069980;28;20044;-73
2023/08/08 05:21:34;;;;;;;5.53;2.53;;;14.80;99.90;;;;;;5070767;28;20028;-73
2023/08/08 05:24:00;;;;;;;5.75;2.65;;;15.00;99.90;;;;;;5070686;28;20046;-73
2023/08/08 05:26:25;;;;;;;3.35;1.67;;;15.10;99.90;;;;;;5070056;28;20388;-73
2023/08/08 05:28:51;;;;;;;6.82;1.75;;;15.10;99.90;;;;;;5053633;28;20082;-73
2023/08/08 05:31:16;;;;;;;5.50;2.25;;;15.10;99.90;;;;;;5070289;28;20096;-72
2023/08/08 05:33:42;;;;;;;7.35;2.03;;;15.30;99.90;;;;;;5070399;28;20039;-73
2023/08/08 05:36:07;;;;;;;5.15;1.75;;;15.30;99.90;;;;;;5071582;28;20037;-72
2023/08/08 05:38:33;;;;;;;7.72;2.03;;;15.40;99.90;;;;;;5070183;28;20055;-72
2023/08/08 05:40:59;;;;;;;3.40;1.55;;;15.80;99.90;;;;;;5069972;28;20408;-72
2023/08/08 05:43:24;;;;;;;7.00;1.70;;;15.80;99.90;;;;;;5070352;28;20385;-72
2023/08/08 05:45:50;;;;;;;5.78;1.90;;;15.70;99.90;;;;;;5070404;28;20067;-73
2023/08/08 05:48:15;;;;;;;3.80;1.40;;;16.20;99.90;;;;;;5069996;28;20436;-73
2023/08/08 05:50:41;;;;;;;7.43;2.50;;;16.10;99.90;;;;;;5070095;28;20072;-73
2023/08/08 05:53:07;;;;;;;6.38;2.00;;;16.00;99.90;;;;;;5053387;28;20040;-72
2023/08/08 05:55:32;;;;;;;4.90;1.15;;;16.20;99.90;;;;;;5069818;28;20044;-72
2023/08/08 05:57:58;;;;;;;5.85;2.28;;;16.40;99.90;;;;;;5071259;28;20039;-73
2023/08/08 06:00:24;;;;;;;1.63;1.23;;;16.70;99.90;;;;;;5069902;28;20032;-73
2023/08/08 06:02:50;;;;;;;7.55;1.55;;;16.70;99.90;;;;;;5071339;28;20036;-73
2023/08/08 06:05:17;;;;;;;5.85;1.52;;;16.90;99.90;;;;;;5071389;28;20048;-73
2023/08/08 06:07:42;;;;;;;6.22;1.50;;;16.70;99.90;;;;;;5069691;28;20040;-72
2023/08/08 06:10:09;;;;;;;4.88;1.20;;;17.00;99.90;;;;;;5071100;28;20418;-73
2023/08/08 06:12:35;;;;;;;5.68;1.38;;;16.80;99.90;;;;;;5069603;28;20043;-72
2023/08/08 06:15:01;;;;;;;4.63;1.63;;;17.10;99.90;;;;;;5066799;28;20033;-73
2023/08/08 06:17:26;;;;;;;5.55;1.48;;;17.20;99.90;;;;;;5069380;28;20095;-74
2023/08/08 06:19:53;;;;;;;4.75;1.20;;;16.90;99.90;;;;;;5053249;28;20029;-73
2023/08/08 06:22:19;;;;;;;4.25;2.08;;;17.00;99.90;;;;;;5053566;28;20036;-73
2023/08/08 06:24:45;;;;;;;6.43;1.60;;;17.20;99.90;;;;;;5069862;28;20389;-73
2023/08/08 06:27:10;;;;;;;5.72;1.75;;;17.10;99.90;;;;;;5069695;28;20044;-73
2023/08/08 06:29:36;;;;;;;4.80;0.98;;;17.20;99.90;;;;;;5069666;28;20121;-73
2023/08/08 06:32:02;;;;;;;4.30;1.25;;;17.50;99.90;;;;;;5070078;28;20087;-73
2023/08/08 06:34:27;;;;;;;4.30;0.98;;;17.50;99.90;;;;;;5070021;28;20086;-74
2023/08/08 06:36:53;;;;;;;3.13;0.95;;;17.70;99.90;;;;;;5071262;28;20495;-74
2023/08/08 06:39:21;;;;;;;5.25;1.17;;;17.70;99.90;;;;;;5073462;28;20538;-74
2023/08/08 06:41:46;;;;;;;3.03;1.17;;;17.80;99.90;;;;;;5073823;28;20404;-74
2023/08/08 06:44:12;;;;;;;5.05;1.33;;;17.80;99.90;;;;;;5073408;28;20062;-74
2023/08/08 06:46:37;;;;;;;8.73;1.17;;;18.10;99.90;;;;;;5073198;28;20045;-74
2023/08/08 06:49:04;;;;;;;7.05;1.75;;;18.00;99.90;;;;;;5072622;28;20029;-73
2023/08/08 06:51:29;;;;;;;4.82;1.10;;;18.10;99.90;;;;;;5073340;28;20047;-74
2023/08/08 06:53:55;;;;;;;2.08;0.90;;;18.10;99.90;;;;;;5056734;28;20127;-74
2023/08/08 06:56:21;;;;;;;4.10;1.05;;;18.20;99.90;;;;;;5073202;28;20555;-74
2023/08/08 06:58:46;;;;;;;4.97;1.73;;;18.20;99.90;;;;;;5072957;28;20041;-74
2023/08/08 07:01:13;;;;;;;5.25;1.00;;;18.30;99.90;;;;;;5072817;28;20097;-73
2023/08/08 07:03:39;;;;;;;6.22;1.17;;;18.50;99.90;;;;;;5073076;28;20044;-75
2023/08/08 07:06:04;;;;;;;4.00;1.20;;;18.50;99.90;;;;;;5056517;28;20052;-74
2023/08/08 07:08:30;;;;;;;1.92;0.82;;;18.50;99.90;;;;;;5072835;28;20046;-74
2023/08/08 07:10:59;;;;;;;8.20;1.67;;;18.40;99.90;;;;;;5072774;28;20127;-75
2023/08/08 07:13:24;;;;;;;3.28;0.90;;;18.70;99.90;;;;;;5072894;28;20495;-74
2023/08/08 07:15:50;;;;;;;5.78;0.90;;;18.60;99.90;;;;;;5072813;28;20047;-73
2023/08/08 07:18:15;;;;;;;3.28;1.00;;;18.20;99.90;;;;;;5055579;28;20480;-73
2023/08/08 07:20:41;;;;;;;3.38;1.27;;;18.10;99.90;;;;;;5072475;28;20072;-73
2023/08/08 07:23:07;;;;;;;2.20;0.90;;;18.20;99.90;;;;;;5072684;28;20032;-72
2023/08/08 07:25:33;;;;;;;8.40;1.23;;;18.20;99.90;;;;;;5072778;28;20123;-74
2023/08/08 07:27:59;;;;;;;4.53;1.25;;;18.50;99.90;;;;;;5072193;28;20119;-74
2023/08/08 07:30:25;;;;;;;2.95;1.48;;;18.60;99.90;;;;;;5072620;28;20140;-73
2023/08/08 07:32:50;;;;;;;8.38;1.27;;;18.10;99.90;;;;;;5072649;28;20067;-73
2023/08/08 07:35:17;;;;;;;3.55;0.80;;;18.40;99.90;;;;;;5072609;28;20048;-73
2023/08/08 07:37:43;;;;;;;2.95;0.70;;;18.40;99.90;;;;;;5071849;28;20036;-73
2023/08/08 07:40:19;;;;;;;5.50;2.05;;;18.20;99.90;;;;;;5072402;28;20052;-74
2023/08/08 07:42:46;;;;;;;4.60;1.10;;;17.90;99.90;;;;;;5055954;28;20072;-74
2023/08/08 07:45:12;;;;;;;4.60;1.23;;;17.90;99.90;;;;;;5072416;28;20043;-74
2023/08/08 07:47:37;;;;;;;3.90;1.13;;;17.90;99.90;;;;;;5071928;28;20036;-74
2023/08/08 07:50:03;;;;;;;5.43;1.10;;;17.90;99.90;;;;;;5071541;28;20124;-74
2023/08/08 07:52:29;;;;;;;4.95;0.95;;;18.10;99.90;;;;;;5072137;28;20059;-74
2023/08/08 07:54:55;;;;;;;5.70;1.55;;;17.90;99.90;;;;;;5071847;28;20044;-74
2023/08/08 07:57:20;;;;;;;4.72;0.98;;;17.90;99.90;;;;;;5071792;28;20037;-74
2023/08/08 07:59:46;;;;;;;2.67;1.08;;;18.00;99.90;;;;;;5071895;28;20123;-74
2023/08/08 08:02:11;;;;;;;2.63;0.70;;;17.90;99.90;;;;;;5071823;28;20136;-73
2023/08/08 08:04:37;;;;;;;3.60;0.85;;;17.90;99.90;;;;;;5055252;28;20059;-74
2023/08/08 08:07:02;;;;;;;8.60;1.23;;;17.90;99.90;;;;;;5071433;28;20089;-74
2023/08/08 08:09:28;;;;;;;3.17;1.50;;;17.70;99.90;;;;;;5071739;28;20044;-74
2023/08/08 08:11:54;;;;;;;5.28;1.30;;;17.60;99.90;;;;;;5073155;28;20036;-74
2023/08/08 08:14:21;;;;;;;2.80;0.93;;;17.70;99.90;;;;;;5071691;28;20086;-74
2023/08/08 08:16:48;;;;;;;5.50;0.85;;;17.80;99.90;;;;;;5054805;28;20036;-74
2023/08/08 08:19:13;;;;;;;3.85;1.50;;;17.70;99.90;;;;;;5054802;28;20041;-75
2023/08/08 08:21:39;;;;;;;3.10;1.13;;;17.70;99.90;;;;;;5071868;28;20040;-74
2023/08/08 08:24:05;;;;;;;3.25;0.90;;;17.70;99.90;;;;;;5072737;28;20032;-74
2023/08/08 08:26:31;;;;;;;4.32;1.00;;;17.60;99.90;;;;;;5072915;28;20036;-75
2023/08/08 08:28:57;;;;;;;7.63;1.67;;;17.40;99.90;;;;;;5071246;28;20520;-74
2023/08/08 08:31:23;;;;;;;5.35;0.95;;;17.50;99.90;;;;;;5072599;28;20062;-74
2023/08/08 08:33:48;;;;;;;3.75;0.80;;;17.40;99.90;;;;;;5071565;28;20510;-74
2023/08/08 08:36:14;;;;;;;6.07;1.20;;;17.30;99.90;;;;;;5071183;28;20411;-75
2023/08/08 08:38:40;;;;;;;2.42;0.77;;;17.40;99.90;;;;;;5072169;28;20404;-74
2023/08/08 08:41:05;;;;;;;6.72;1.38;;;17.30;99.90;;;;;;5065553;28;20040;-74
2023/08/08 08:43:31;;;;;;;6.13;1.05;;;17.40;99.90;;;;;;5069895;28;20091;-75
2023/08/08 08:46:02;;;;;;;2.67;0.80;;;17.20;99.90;;;;;;5070253;28;20067;-74
2023/08/08 08:48:28;;;;;;;3.92;1.23;;;17.40;99.90;;;;;;5070034;28;20044;-74
2023/08/08 08:50:54;;;;;;;4.28;0.93;;;17.40;99.90;;;;;;5071419;28;20119;-74
2023/08/08 08:53:22;;;;;;;3.47;0.93;;;17.70;99.90;;;;;;5070330;28;20141;-74
2023/08/08 08:55:48;;;;;;;4.18;1.40;;;17.80;99.90;;;;;;5070540;28;20067;-75
2023/08/08 08:58:16;;;;;;;4.28;1.05;;;17.50;99.90;;;;;;5070297;28;20074;-73
2023/08/08 09:00:44;;;;;;;4.70;0.93;;;17.80;99.90;;;;;;5069191;28;20041;-74
2023/08/08 09:03:10;;;;;;;3.25;1.13;;;18.10;99.90;;;;;;5070241;28;20040;-74
2023/08/08 09:05:37;;;;;;;4.15;0.80;;;18.60;99.90;;;;;;5071439;28;20094;-74
2023/08/08 09:08:03;;;;;;;3.40;1.08;;;18.70;99.90;;;;;;5070032;28;20048;-75
2023/08/08 09:10:31;;;;;;;1.98;0.55;;;19.00;99.90;;;;;;5101433;22;20044;-72
2023/08/08 09:12:57;;;;;;;4.47;1.23;;;19.30;99.90;;;;;;5092391;28;20036;-72
2023/08/08 09:15:23;;;;;;;5.47;1.30;;;19.30;99.90;;;;;;5074559;28;20135;-71
2023/08/08 09:17:48;;;;;;;6.20;1.27;;;19.40;99.90;;;;;;5092797;28;20043;-71
2023/08/08 09:20:14;;;;;;;6.20;1.70;;;19.20;99.90;;;;;;5092545;28;20032;-71
2023/08/08 09:22:39;;;;;;;5.07;1.30;;;19.50;99.90;;;;;;5092956;28;20427;-72
2023/08/08 09:25:06;;;;;;;4.20;0.88;;;19.60;99.90;;;;;;5093096;28;20039;-72
2023/08/08 09:27:32;;;;;;;1.95;0.70;;;19.10;99.90;;;;;;5092758;28;20122;-72
2023/08/08 09:29:58;;;;;;;5.00;1.17;;;19.00;99.90;;;;;;5092937;28;20617;-72
2023/08/08 09:32:30;;;;;;;5.32;0.77;;;18.70;99.90;;;;;;5091628;28;20040;-71
2023/08/08 09:34:57;;;;;;;3.05;0.80;;;18.50;99.90;;;;;;5087049;28;20044;-72
2023/08/08 09:37:23;;;;;;;5.32;1.13;;;18.50;99.90;;;;;;5091575;28;20130;-72
2023/08/08 09:39:59;;;;;;;3.13;0.88;;;18.70;99.90;;;;;;5092138;28;20036;-71
2023/08/08 09:42:27;;;;;;;1.80;0.65;;;18.90;99.90;;;;;;5091246;28;20032;-69
2023/08/08 09:44:53;;;;;;;6.43;1.20;;;19.30;99.90;;;;;;5090302;28;20136;-69
2023/08/08 09:47:20;;;;;;;4.25;1.05;;;19.30;99.90;;;;;;5091338;28;20509;-69
2023/08/08 09:49:47;;;;;;;4.13;1.13;;;19.50;99.90;;;;;;5083499;28;20097;-69
2023/08/08 09:52:13;;;;;;;2.33;0.70;;;19.80;99.90;;;;;;5091959;28;20050;-69
2023/08/08 09:54:39;;;;;;;2.00;0.80;;;19.60;99.90;;;;;;5090868;28;20385;-68
2023/08/08 09:57:06;;;;;;;8.48;0.75;;;19.40;99.90;;;;;;5091235;28;20036;-69
2023/08/08 09:59:33;;;;;;;5.97;0.90;;;19.10;99.90;;;;;;5090498;28;20040;-68
2023/08/08 10:01:59;;;;;;;7.85;1.65;;;19.00;99.90;;;;;;5090064;28;20119;-69
2023/08/08 10:04:25;;;;;;;2.30;0.75;;;18.60;99.90;;;;;;5091181;28;20040;-69
2023/08/08 10:06:51;;;;;;;5.05;0.98;;;18.30;99.90;;;;;;5090684;28;20032;-69
2023/08/08 10:09:18;;;;;;;3.72;1.00;;;18.30;99.90;;;;;;5091309;28;20389;-69
2023/08/08 10:11:44;;;;;;;5.28;1.20;;;18.30;99.90;;;;;;5091602;28;20127;-69
2023/08/08 10:14:11;;;;;;;5.65;1.00;;;18.70;99.90;;;;;;5095051;28;20453;-69
2023/08/08 10:16:37;;;;;;;6.05;1.48;;;18.50;99.90;;;;;;5095607;28;20036;-69
2023/08/08 10:19:05;;;;;;;6.40;1.10;;;18.30;99.90;;;;;;5093747;28;20052;-69
2023/08/08 10:21:35;;;;;;;3.50;1.10;;;17.90;99.90;;;;;;5093780;28;20044;-69
2023/08/08 10:24:08;;;;;;;8.27;1.00;;;17.60;99.90;;;;;;5094949;28;20077;-69
2023/08/08 10:26:50;;;;;;;3.72;0.88;;;17.20;99.90;;;;;;5093651;28;20040;-69
2023/08/08 10:29:18;;;;;;;3.95;0.82;;;16.70;99.90;;;;;;5092686;28;20063;-70
2023/08/08 10:31:52;;;;;;;5.97;1.50;;;16.40;99.90;;;;;;5091063;28;20036;-69
2023/08/08 10:34:20;;;;;;;2.55;0.98;;;16.00;99.90;;;;;;5095290;28;20075;-68
2023/08/08 10:36:51;;;;;;;4.60;1.05;;;16.00;99.90;;;;;;5095162;28;20068;-68
2023/08/08 10:39:18;;;;;;;3.13;1.02;;;16.00;99.90;;;;;;5093754;28;20115;-71
2023/08/08 10:41:48;;;;;;;6.45;1.00;;;15.90;99.90;;;;;;5094945;28;20035;-71
2023/08/08 10:44:22;;;;;;;3.30;1.05;;;16.40;99.90;;;;;;5094992;28;20518;-71
2023/08/08 10:46:48;;;;;;;2.58;0.90;;;16.40;99.90;;;;;;5093695;28;20149;-70
2023/08/08 10:49:14;;;;;;;9.60;1.85;;;16.40;99.90;;;;;;5094883;28;20127;-71
2023/08/08 10:51:46;;;;;;;3.72;1.50;;;16.50;99.90;;;;;;5094840;28;20123;-70
2023/08/08 10:54:14;;;;;;;4.38;1.20;;;16.10;99.90;;;;;;5093758;28;20077;-71
2023/08/08 10:56:40;;;;;;;6.18;2.42;;;16.30;99.90;;;;;;5093433;28;20044;-71
2023/08/08 10:59:15;;;;;;;5.45;1.60;;;16.40;99.90;;;;;;5094756;28;20089;-70
2023/08/08 11:01:42;;;;;;;2.67;1.42;;;16.10;99.90;;;;;;5093546;28;20042;-70
2023/08/08 11:04:07;;;;;;;7.65;2.42;;;16.50;99.90;;;;;;5094647;28;20040;-71
2023/08/08 11:06:34;;;;;;;7.22;1.30;;;16.30;99.90;;;;;;5093223;28;20044;-70
2023/08/08 11:09:01;;;;;;;8.30;1.70;;;16.00;99.90;;;;;;5094549;28;20052;-70
2023/08/08 11:11:26;;;;;;;7.88;1.60;;;16.30;99.90;;;;;;5094319;28;20115;-70
2023/08/08 11:13:52;;;;;;;7.40;1.40;;;16.00;99.90;;;;;;5093221;28;20094;-70
2023/08/08 11:16:19;;;;;;;7.88;2.85;;;16.00;99.90;;;;;;5094300;28;20043;-70
2023/08/08 11:18:45;;;;;;;5.85;1.52;;;16.50;99.90;;;;;;5092835;28;20035;-70
2023/08/08 11:21:11;;;;;;;5.45;1.20;;;16.90;99.90;;;;;;5093149;28;20515;-70
2023/08/08 11:23:38;;;;;;;3.03;1.00;;;16.70;99.90;;;;;;5093122;28;20042;-71
2023/08/08 11:26:04;;;;;;;5.43;0.82;;;16.50;99.90;;;;;;5094390;28;20062;-71
2023/08/08 11:28:30;;;;;;;4.03;1.20;;;16.50;99.90;;;;;;5094047;28;20523;-71
2023/08/08 11:30:55;;;;;;;5.05;1.02;;;16.50;99.90;;;;;;5094223;28;20427;-71
2023/08/08 11:33:21;;;;;;;4.53;1.00;;;16.40;99.90;;;;;;5094009;28;20036;-71
2023/08/08 11:35:48;;;;;;;5.88;1.33;;;16.40;99.90;;;;;;5092950;28;20456;-71
2023/08/08 11:38:15;;;;;;;2.38;0.80;;;16.60;99.90;;;;;;5094006;28;20036;-71
2023/08/08 11:40:41;;;;;;;7.18;1.52;;;16.90;99.90;;;;;;5094114;28;20079;-71
2023/08/08 11:43:07;;;;;;;3.58;0.93;;;16.90;99.90;;;;;;5092716;28;20070;-71
2023/08/08 11:45:34;;;;;;;4.82;1.10;;;16.90;99.90;;;;;;5093857;28;20510;-71
2023/08/08 11:48:00;;;;;;;4.07;1.17;;;17.00;99.90;;;;;;5092402;28;20036;-71
2023/08/08 11:50:28;;;;;;;5.90;1.17;;;17.00;99.90;;;;;;5093910;28;20380;-70
2023/08/08 11:52:55;;;;;;;3.78;1.10;;;16.70;99.90;;;;;;5092460;28;20124;-71
2023/08/08 11:55:22;;;;;;;2.22;0.90;;;16.80;99.90;;;;;;5092278;28;20040;-71
2023/08/08 11:57:48;;;;;;;3.22;0.90;;;16.80;99.90;;;;;;5092172;28;20514;-70
2023/08/08 12:00:14;;;;;;;3.40;1.10;;;16.80;99.90;;;;;;5075401;28;20036;-71
2023/08/08 12:02:43;;;;;;;2.97;1.20;;;16.80;99.90;;;;;;5093458;28;20048;-71
2023/08/08 12:05:16;;;;;;;4.90;1.30;;;16.90;99.90;;;;;;5091097;28;20032;-71
2023/08/08 12:07:44;;;;;;;8.52;0.93;;;16.90;99.90;;;;;;5091464;28;20044;-71
2023/08/08 12:10:23;;;;;;;7.03;1.00;;;16.90;99.90;;;;;;5091789;28;20051;-70
2023/08/08 12:12:56;;;;;;;3.33;0.98;;;16.90;99.90;;;;;;5093233;28;20046;-70
2023/08/08 12:15:22;;;;;;;6.38;1.02;;;16.90;99.90;;;;;;5092165;28;20044;-70
2023/08/08 12:17:47;;;;;;;4.55;0.70;;;17.10;99.90;;;;;;5093216;28;20039;-71
2023/08/08 12:20:15;;;;;;;2.80;0.82;;;17.10;99.90;;;;;;5091951;28;20039;-70
2023/08/08 12:22:41;;;;;;;2.17;0.70;;;17.20;99.90;;;;;;5091864;28;20040;-71
2023/08/08 12:25:08;;;;;;;2.15;0.70;;;17.40;99.90;;;;;;5092998;28;20116;-70
2023/08/08 12:27:33;;;;;;;5.57;0.82;;;17.30;99.90;;;;;;5091586;28;20055;-71
2023/08/08 12:29:59;;;;;;;2.90;0.95;;;17.20;99.90;;;;;;5091679;28;20048;-71
2023/08/08 12:32:28;;;;;;;4.82;1.00;;;17.20;99.90;;;;;;5093118;28;20040;-71
2023/08/08 12:34:55;;;;;;;3.50;1.20;;;17.10;99.90;;;;;;5092668;28;20044;-70
2023/08/08 12:37:23;;;;;;;2.53;0.98;;;17.00;99.90;;;;;;5092645;28;20040;-71
2023/08/08 12:39:49;;;;;;;6.10;1.35;;;17.10;99.90;;;;;;5092788;28;20071;-70
2023/08/08 12:42:14;;;;;;;4.68;1.33;;;17.10;99.90;;;;;;5092708;28;20044;-70